createdAt,value
2023-09-11T00:00:16.968Z,99.90
2023-09-11T00:02:45.226Z,99.90
2023-09-11T00:05:13.488Z,99.90
2023-09-11T00:07:41.780Z,99.90
2023-09-11T00:10:12.662Z,99.90
2023-09-11T00:12:40.930Z,99.90
2023-09-11T00:15:10.835Z,99.90
2023-09-11T00:17:39.106Z,99.90
2023-09-11T00:20:11.617Z,99.90
2023-09-11T00:22:39.951Z,99.90
2023-09-11T00:25:10.871Z,99.90
2023-09-11T00:27:39.249Z,99.90
2023-09-11T00:30:09.377Z,99.90
2023-09-11T00:32:37.779Z,99.90
2023-09-11T00:35:07.078Z,99.90
2023-09-11T00:37:35.293Z,99.90
2023-09-11T00:40:05.118Z,99.90
2023-09-11T00:42:34.725Z,99.90
2023-09-11T00:45:02.972Z,99.90
2023-09-11T00:47:31.851Z,99.90
2023-09-11T00:50:01.814Z,99.90
2023-09-11T00:52:31.730Z,99.90
2023-09-11T00:55:01.373Z,99.90
2023-09-11T00:57:29.748Z,99.90
2023-09-11T00:59:59.771Z,99.90
2023-09-11T01:02:28.431Z,99.90
2023-09-11T01:04:56.824Z,99.90
2023-09-11T01:07:25.104Z,99.90
2023-09-11T01:09:53.594Z,99.90
2023-09-11T01:12:22.068Z,99.90
2023-09-11T01:14:50.527Z,99.90
2023-09-11T01:17:37.086Z,99.90
2023-09-11T01:20:29.336Z,99.90
2023-09-11T01:23:48.674Z,99.90
2023-09-11T01:26:52.343Z,99.90
2023-09-11T01:29:26.742Z,99.90
2023-09-11T01:31:56.903Z,99.90
2023-09-11T01:34:25.083Z,99.90
2023-09-11T01:36:53.305Z,99.90
2023-09-11T01:39:22.364Z,99.90
2023-09-11T01:41:57.031Z,99.90
2023-09-11T01:44:34.581Z,99.90
2023-09-11T01:47:04.212Z,99.90
2023-09-11T01:49:35.000Z,99.90
2023-09-11T01:52:05.259Z,99.90
2023-09-11T01:54:35.355Z,99.90
2023-09-11T01:57:03.844Z,99.90
2023-09-11T01:59:33.670Z,99.90
2023-09-11T02:02:01.921Z,99.90
2023-09-11T02:04:31.626Z,99.90
2023-09-11T02:06:59.860Z,99.90
2023-09-11T02:09:28.007Z,99.90
2023-09-11T02:11:56.214Z,99.90
2023-09-11T02:14:24.545Z,99.90
2023-09-11T02:16:54.149Z,99.90
2023-09-11T02:19:23.310Z,99.90
2023-09-11T02:21:51.514Z,99.90
2023-09-11T02:24:19.756Z,99.90
2023-09-11T02:26:48.063Z,99.90
2023-09-11T02:29:16.269Z,99.90
2023-09-11T02:31:44.505Z,99.90
2023-09-11T02:34:14.211Z,99.90
2023-09-11T02:36:42.451Z,99.90
2023-09-11T02:39:10.877Z,99.90
2023-09-11T02:41:39.408Z,99.90
2023-09-11T02:44:08.834Z,99.90
2023-09-11T02:46:37.044Z,99.90
2023-09-11T02:49:05.236Z,99.90
2023-09-11T02:51:34.901Z,99.90
2023-09-11T02:54:03.167Z,99.90
2023-09-11T02:56:31.462Z,99.90
2023-09-11T02:58:59.687Z,99.90
2023-09-11T03:01:27.920Z,99.90
2023-09-11T03:03:56.123Z,99.90
2023-09-11T03:06:24.376Z,99.90
2023-09-11T03:08:53.937Z,99.90
2023-09-11T03:11:22.783Z,99.90
2023-09-11T03:13:51.283Z,99.90
2023-09-11T03:16:19.665Z,99.90
2023-09-11T03:18:48.096Z,99.90
2023-09-11T03:21:16.322Z,99.90
2023-09-11T03:23:46.368Z,99.90
2023-09-11T03:26:17.709Z,99.90
2023-09-11T03:28:50.439Z,99.90
2023-09-11T03:31:18.865Z,99.90
2023-09-11T03:33:47.914Z,99.90
2023-09-11T03:36:17.764Z,99.90
2023-09-11T03:38:46.455Z,99.90
2023-09-11T03:41:16.402Z,99.90
2023-09-11T03:43:44.574Z,99.90
2023-09-11T03:46:13.640Z,99.90
2023-09-11T03:48:42.816Z,99.90
2023-09-11T03:51:11.535Z,99.90
2023-09-11T03:53:44.077Z,99.90
2023-09-11T03:56:13.624Z,99.90
2023-09-11T03:58:46.095Z,99.90
2023-09-11T04:01:14.397Z,99.90
2023-09-11T04:03:44.602Z,99.90
2023-09-11T04:06:13.178Z,99.90
2023-09-11T04:08:41.389Z,99.90
2023-09-11T04:11:09.643Z,99.90
2023-09-11T04:13:37.779Z,99.90
2023-09-11T04:16:07.486Z,99.90
2023-09-11T04:18:35.731Z,99.90
2023-09-11T04:21:05.722Z,99.90
2023-09-11T04:23:35.543Z,99.90
2023-09-11T04:26:04.084Z,99.90
2023-09-11T04:28:32.402Z,99.90
2023-09-11T04:31:00.704Z,99.90
2023-09-11T04:33:30.323Z,99.90
2023-09-11T04:35:58.733Z,99.90
2023-09-11T04:38:26.967Z,99.90
2023-09-11T04:40:58.788Z,99.90
2023-09-11T04:43:27.149Z,99.90
2023-09-11T04:45:55.378Z,99.90
2023-09-11T04:48:23.834Z,99.90
2023-09-11T04:50:53.512Z,99.90
2023-09-11T04:53:21.789Z,99.90
2023-09-11T04:55:50.346Z,99.90
2023-09-11T04:58:18.700Z,99.90
2023-09-11T05:00:47.140Z,99.90
2023-09-11T05:03:15.433Z,99.90
2023-09-11T05:05:43.734Z,99.90
2023-09-11T05:08:13.610Z,99.90
2023-09-11T05:10:43.723Z,99.90
2023-09-11T05:13:13.159Z,99.90
2023-09-11T05:15:41.553Z,99.90
2023-09-11T05:18:12.118Z,99.90
2023-09-11T05:20:40.566Z,99.90
2023-09-11T05:23:08.865Z,99.90
2023-09-11T05:25:38.647Z,99.90
2023-09-11T05:28:07.676Z,99.90
2023-09-11T05:30:36.106Z,99.90
2023-09-11T05:33:04.634Z,99.90
2023-09-11T05:35:33.947Z,99.90
2023-09-11T05:38:02.187Z,99.90
2023-09-11T05:40:30.698Z,99.90
2023-09-11T05:43:00.252Z,99.90
2023-09-11T05:45:28.482Z,99.90
2023-09-11T05:47:56.793Z,99.90
2023-09-11T05:50:25.063Z,99.90
2023-09-11T05:52:53.475Z,99.90
2023-09-11T05:55:24.103Z,99.90
2023-09-11T05:57:52.740Z,99.90
2023-09-11T06:00:25.192Z,99.90
2023-09-11T06:02:53.390Z,99.90
2023-09-11T06:05:22.003Z,99.90
2023-09-11T06:07:50.176Z,99.90
2023-09-11T06:10:18.497Z,99.90
2023-09-11T06:12:46.693Z,99.90
2023-09-11T06:15:15.306Z,99.90
2023-09-11T06:17:46.018Z,99.90
2023-09-11T06:20:17.239Z,99.90
2023-09-11T06:22:45.874Z,99.90
2023-09-11T06:25:14.376Z,99.90
2023-09-11T06:27:42.609Z,99.90
2023-09-11T06:30:12.021Z,99.90
2023-09-11T06:32:40.401Z,99.90
2023-09-11T06:35:11.130Z,99.90
2023-09-11T06:37:39.458Z,99.90
2023-09-11T06:40:10.723Z,99.90
2023-09-11T06:42:39.283Z,99.90
2023-09-11T06:45:08.987Z,99.90
2023-09-11T06:47:37.793Z,99.90
2023-09-11T06:50:07.196Z,99.90
2023-09-11T06:52:39.882Z,99.90
2023-09-11T06:55:09.899Z,99.90
2023-09-11T06:57:42.280Z,99.90
2023-09-11T07:00:16.587Z,99.90
2023-09-11T07:02:50.053Z,99.90
2023-09-11T07:05:18.644Z,99.90
2023-09-11T07:07:48.707Z,99.90
2023-09-11T07:10:30.209Z,99.90
2023-09-11T07:13:02.930Z,99.90
2023-09-11T07:15:31.246Z,99.90
2023-09-11T07:17:59.579Z,99.90
2023-09-11T07:20:28.232Z,99.90
2023-09-11T07:22:57.891Z,99.90
2023-09-11T07:25:26.359Z,99.90
2023-09-11T07:27:56.704Z,99.90
2023-09-11T07:30:25.621Z,99.90
2023-09-11T07:32:54.757Z,99.90
2023-09-11T07:35:23.616Z,99.90
2023-09-11T07:37:52.293Z,99.90
2023-09-11T07:40:21.999Z,99.90
2023-09-11T07:42:54.212Z,99.90
2023-09-11T07:45:23.598Z,99.90
2023-09-11T07:47:52.278Z,99.90
2023-09-11T07:50:21.818Z,99.90
2023-09-11T07:52:51.487Z,99.90
2023-09-11T07:55:21.572Z,99.90
2023-09-11T07:57:51.175Z,99.90
2023-09-11T08:00:19.720Z,99.90
2023-09-11T08:02:49.611Z,99.90
2023-09-11T08:05:18.392Z,99.90
2023-09-11T08:07:46.591Z,99.90
2023-09-11T08:10:15.438Z,99.90
2023-09-11T08:12:45.025Z,99.90
2023-09-11T08:15:15.789Z,99.90
2023-09-11T08:17:44.238Z,99.90
2023-09-11T08:20:13.772Z,99.90
2023-09-11T08:22:42.972Z,99.90
2023-09-11T08:25:12.198Z,99.90
2023-09-11T08:27:40.820Z,99.90
2023-09-11T08:30:11.452Z,99.90
2023-09-11T08:32:39.871Z,99.90
2023-09-11T08:35:09.128Z,99.90
2023-09-11T08:37:37.412Z,99.90
2023-09-11T08:40:07.852Z,99.90
2023-09-11T08:42:36.841Z,99.90
2023-09-11T08:45:05.814Z,99.90
2023-09-11T08:47:38.852Z,93.90
2023-09-11T08:50:09.910Z,91.60
2023-09-11T08:52:41.174Z,93.40
2023-09-11T08:55:11.435Z,83.80
2023-09-11T08:57:44.564Z,87.70
2023-09-11T09:00:15.529Z,78.30
2023-09-11T09:02:45.987Z,76.90
2023-09-11T09:05:17.425Z,79.80
2023-09-11T09:07:48.008Z,79.30
2023-09-11T09:10:17.346Z,71.60
2023-09-11T09:12:46.958Z,61.90
2023-09-11T09:15:18.971Z,63.10
2023-09-11T09:17:48.732Z,58.50
2023-09-11T09:20:18.634Z,60.00
2023-09-11T09:22:57.633Z,59.40
2023-09-11T09:25:27.345Z,58.10
2023-09-11T09:27:57.818Z,58.30
2023-09-11T09:30:29.227Z,61.00
2023-09-11T09:33:00.184Z,51.40
2023-09-11T09:35:32.557Z,50.00
2023-09-11T09:38:03.243Z,50.10
2023-09-11T09:40:34.239Z,51.10
2023-09-11T09:43:04.728Z,52.20
2023-09-11T09:45:36.776Z,49.00
2023-09-11T09:48:12.164Z,45.40
2023-09-11T09:50:58.471Z,47.70
2023-09-11T09:53:32.475Z,47.90
2023-09-11T09:56:04.339Z,45.50
2023-09-11T09:58:37.901Z,41.80
2023-09-11T10:01:08.817Z,41.80
2023-09-11T10:03:45.023Z,44.40
2023-09-11T10:06:19.253Z,40.60
2023-09-11T10:08:49.048Z,40.80
2023-09-11T10:11:31.183Z,39.20
2023-09-11T10:14:01.865Z,37.00
2023-09-11T10:16:32.663Z,36.50
2023-09-11T10:19:04.702Z,36.50
2023-09-11T10:21:34.801Z,37.10
2023-09-11T10:24:03.246Z,35.50
2023-09-11T10:26:42.195Z,34.10
2023-09-11T10:29:23.979Z,33.40
2023-09-11T10:32:00.987Z,35.20
2023-09-11T10:34:31.505Z,30.70
2023-09-11T10:37:02.360Z,31.30
2023-09-11T10:39:32.604Z,30.40
2023-09-11T10:42:02.206Z,29.70
2023-09-11T10:44:31.004Z,28.40
2023-09-11T10:47:05.599Z,27.30
2023-09-11T10:49:41.854Z,27.10
2023-09-11T10:52:11.087Z,27.70
2023-09-11T10:54:39.456Z,26.80
2023-09-11T10:57:08.426Z,28.40
2023-09-11T10:59:37.424Z,28.70
2023-09-11T11:02:06.339Z,26.30
2023-09-11T11:04:37.211Z,28.90
2023-09-11T11:07:06.030Z,25.90
2023-09-11T11:09:36.109Z,26.10
2023-09-11T11:12:09.676Z,25.40
2023-09-11T11:14:38.000Z,25.60
2023-09-11T11:17:10.122Z,26.60
2023-09-11T11:19:42.117Z,25.20
2023-09-11T11:22:30.218Z,25.50
2023-09-11T11:25:00.013Z,25.10
2023-09-11T11:27:28.597Z,23.50
2023-09-11T11:29:57.471Z,24.30
2023-09-11T11:32:27.360Z,24.80
2023-09-11T11:35:00.502Z,23.40
2023-09-11T11:37:29.624Z,22.10
2023-09-11T11:40:01.928Z,23.20
2023-09-11T11:42:30.713Z,23.60
2023-09-11T11:44:59.530Z,22.90
2023-09-11T11:47:28.769Z,23.10
2023-09-11T11:49:58.370Z,22.30
2023-09-11T11:52:26.581Z,23.40
2023-09-11T11:54:54.827Z,24.10
2023-09-11T11:57:23.324Z,23.00
2023-09-11T11:59:52.665Z,23.00
2023-09-11T12:02:22.415Z,23.00
2023-09-11T12:04:55.951Z,22.40
2023-09-11T12:07:27.017Z,20.80
2023-09-11T12:09:55.278Z,20.80
2023-09-11T12:12:23.589Z,20.70
2023-09-11T12:14:57.679Z,20.50
2023-09-11T12:17:26.086Z,19.10
2023-09-11T12:20:12.780Z,18.20
2023-09-11T12:22:45.792Z,17.80
2023-09-11T12:25:15.270Z,18.20
2023-09-11T12:27:44.634Z,19.70
2023-09-11T12:30:14.293Z,19.80
2023-09-11T12:32:42.595Z,20.40
2023-09-11T12:35:11.082Z,19.00
2023-09-11T12:37:42.084Z,18.20
2023-09-11T12:40:11.240Z,19.80
2023-09-11T12:42:40.634Z,18.80
2023-09-11T12:45:11.878Z,18.90
2023-09-11T12:47:40.518Z,18.60
2023-09-11T12:50:10.244Z,18.50
2023-09-11T12:52:39.105Z,17.70
2023-09-11T12:55:09.149Z,18.40
2023-09-11T12:57:37.347Z,17.80
2023-09-11T13:00:07.637Z,16.80
2023-09-11T13:02:36.160Z,16.90
2023-09-11T13:05:09.196Z,17.00
2023-09-11T13:07:37.956Z,15.50
2023-09-11T13:10:09.100Z,12.50
2023-09-11T13:12:37.335Z,11.00
2023-09-11T13:15:08.603Z,10.70
2023-09-11T13:17:37.844Z,12.40
2023-09-11T13:20:08.313Z,10.60
2023-09-11T13:22:36.835Z,10.00
2023-09-11T13:25:05.950Z,9.50
2023-09-11T13:27:37.502Z,8.30
2023-09-11T13:30:07.301Z,8.00
2023-09-11T13:32:35.726Z,6.70
2023-09-11T13:35:06.337Z,7.90
2023-09-11T13:37:35.401Z,8.30
2023-09-11T13:40:03.693Z,7.90
2023-09-11T13:42:31.928Z,7.40
2023-09-11T13:45:01.836Z,7.60
2023-09-11T13:47:30.130Z,6.70
2023-09-11T13:49:58.373Z,5.40
2023-09-11T13:52:26.930Z,4.80
2023-09-11T13:54:55.617Z,5.40
2023-09-11T13:57:23.900Z,4.60
2023-09-11T13:59:52.209Z,4.20
2023-09-11T14:02:21.860Z,3.50
2023-09-11T14:04:50.216Z,3.90
2023-09-11T14:07:22.529Z,4.00
2023-09-11T14:09:51.034Z,4.70
2023-09-11T14:12:19.334Z,4.00
2023-09-11T14:14:47.771Z,3.50
2023-09-11T14:17:16.116Z,4.50
2023-09-11T14:19:45.692Z,4.10
2023-09-11T14:22:13.893Z,3.00
2023-09-11T14:24:42.467Z,3.50
2023-09-11T14:27:13.032Z,4.40
2023-09-11T14:29:41.291Z,5.20
2023-09-11T14:32:09.549Z,4.10
2023-09-11T14:34:37.822Z,4.50
2023-09-11T14:37:22.585Z,4.00
2023-09-11T14:39:51.992Z,4.20
2023-09-11T14:42:20.421Z,3.50
2023-09-11T14:44:49.250Z,3.50
2023-09-11T14:47:17.489Z,4.10
2023-09-11T14:49:48.374Z,3.20
2023-09-11T14:52:18.553Z,3.40
2023-09-11T14:54:53.772Z,3.90
2023-09-11T14:57:23.505Z,4.40
2023-09-11T14:59:52.180Z,4.40
2023-09-11T15:02:20.930Z,2.40
2023-09-11T15:04:51.610Z,3.00
2023-09-11T15:07:22.518Z,3.50
2023-09-11T15:09:51.301Z,4.10
2023-09-11T15:12:19.880Z,3.50
2023-09-11T15:14:48.979Z,4.00
2023-09-11T15:17:17.492Z,5.00
2023-09-11T15:19:46.129Z,4.20
2023-09-11T15:22:14.496Z,4.90
2023-09-11T15:24:44.642Z,3.90
2023-09-11T15:27:13.064Z,4.10
2023-09-11T15:29:41.698Z,5.50
2023-09-11T15:32:12.411Z,6.00
2023-09-11T15:34:43.256Z,6.60
2023-09-11T15:37:15.778Z,6.30
2023-09-11T15:39:46.211Z,7.40
2023-09-11T15:42:14.942Z,8.70
2023-09-11T15:44:43.343Z,10.10
2023-09-11T15:47:11.782Z,11.30
2023-09-11T15:49:40.392Z,11.10
2023-09-11T15:52:08.913Z,13.00
2023-09-11T15:54:37.297Z,14.80
2023-09-11T15:57:07.561Z,15.10
2023-09-11T15:59:36.245Z,15.50
2023-09-11T16:02:04.763Z,15.40
2023-09-11T16:04:33.252Z,16.40
2023-09-11T16:07:01.680Z,17.20
2023-09-11T16:09:32.090Z,17.00
2023-09-11T16:12:01.149Z,17.50
2023-09-11T16:14:30.901Z,16.80
2023-09-11T16:17:00.923Z,17.60
2023-09-11T16:19:29.385Z,18.30
2023-09-11T16:21:57.577Z,19.00
2023-09-11T16:24:25.991Z,20.30
2023-09-11T16:26:54.380Z,20.30
2023-09-11T16:29:22.567Z,21.80
2023-09-11T16:31:52.080Z,23.10
2023-09-11T16:34:20.212Z,23.60
2023-09-11T16:36:48.542Z,26.20
2023-09-11T16:39:16.895Z,26.40
2023-09-11T16:41:45.837Z,27.30
2023-09-11T16:44:14.103Z,27.20
2023-09-11T16:46:42.310Z,28.20
2023-09-11T16:49:11.851Z,28.80
2023-09-11T16:51:39.966Z,28.90
2023-09-11T16:54:08.893Z,30.00
2023-09-11T16:56:37.074Z,31.00
2023-09-11T17:01:55.372Z,33.60
2023-09-11T17:04:25.509Z,34.70
2023-09-11T17:07:01.137Z,35.40
2023-09-11T17:09:38.417Z,38.10
2023-09-11T17:12:09.446Z,39.20
2023-09-11T17:14:37.956Z,41.50
2023-09-11T17:17:07.204Z,41.50
2023-09-11T17:19:38.428Z,40.70
2023-09-11T17:22:07.127Z,43.70
2023-09-11T17:24:35.746Z,43.40
2023-09-11T17:27:05.196Z,43.10
2023-09-11T17:29:34.975Z,46.00
2023-09-11T17:32:03.170Z,50.00
2023-09-11T17:34:31.437Z,54.00
2023-09-11T17:37:01.075Z,57.70
2023-09-11T17:39:29.332Z,71.00
2023-09-11T17:41:57.594Z,89.20
2023-09-11T17:44:26.070Z,93.80
2023-09-11T17:46:54.366Z,98.00
2023-09-11T17:49:22.564Z,99.90
2023-09-11T17:51:51.740Z,99.90
2023-09-11T17:54:21.871Z,99.90
2023-09-11T17:56:50.752Z,99.90
2023-09-11T17:59:19.211Z,99.90
2023-09-11T18:01:48.338Z,99.90
2023-09-11T18:04:17.589Z,99.90
2023-09-11T18:06:55.552Z,99.90
2023-09-11T18:09:26.722Z,99.90
2023-09-11T18:11:55.744Z,99.90
2023-09-11T18:14:24.343Z,99.90
2023-09-11T18:16:52.740Z,99.90
2023-09-11T18:19:21.051Z,99.90
2023-09-11T18:21:49.372Z,99.90
2023-09-11T18:24:17.764Z,99.90
2023-09-11T18:26:47.643Z,99.90
2023-09-11T18:29:18.866Z,99.90
2023-09-11T18:31:47.587Z,99.90
2023-09-11T18:34:16.159Z,99.90
2023-09-11T18:36:44.806Z,99.90
2023-09-11T18:39:20.319Z,99.90
2023-09-11T18:41:58.678Z,99.90
2023-09-11T18:44:30.273Z,99.90
2023-09-11T18:46:58.654Z,99.90
2023-09-11T18:49:29.387Z,99.90
2023-09-11T18:51:59.235Z,99.90
2023-09-11T18:54:28.042Z,99.90
2023-09-11T18:56:58.183Z,99.90
2023-09-11T18:59:26.789Z,99.90
2023-09-11T19:02:02.601Z,99.90
2023-09-11T19:04:32.519Z,99.90
2023-09-11T19:07:02.554Z,99.90
2023-09-11T19:09:31.507Z,99.90
2023-09-11T19:12:01.327Z,99.90
2023-09-11T19:14:29.581Z,99.90
2023-09-11T19:16:58.217Z,99.90
2023-09-11T19:19:26.699Z,99.90
2023-09-11T19:21:54.879Z,99.90
2023-09-11T19:24:23.314Z,99.90
2023-09-11T19:26:53.164Z,99.90
2023-09-11T19:29:22.985Z,99.90
2023-09-11T19:31:51.522Z,99.90
2023-09-11T19:34:19.886Z,99.90
2023-09-11T19:36:48.081Z,99.90
2023-09-11T19:39:16.507Z,99.90
2023-09-11T19:41:44.838Z,99.90
2023-09-11T19:44:13.568Z,99.90
2023-09-11T19:46:43.185Z,99.90
2023-09-11T19:49:11.374Z,99.90
2023-09-11T19:51:39.577Z,99.90
2023-09-11T19:54:09.066Z,99.90
2023-09-11T19:56:37.476Z,99.90
2023-09-11T19:59:07.940Z,99.90
2023-09-11T20:01:36.740Z,99.90
2023-09-11T20:04:07.326Z,99.90
2023-09-11T20:06:36.804Z,99.90
2023-09-11T20:09:07.088Z,99.90
2023-09-11T20:11:35.388Z,99.90
2023-09-11T20:14:03.643Z,99.90
2023-09-11T20:16:32.768Z,99.90
2023-09-11T20:19:01.223Z,99.90
2023-09-11T20:21:31.635Z,99.90
2023-09-11T20:23:59.880Z,99.90
2023-09-11T20:26:28.167Z,99.90
2023-09-11T20:28:56.360Z,99.90
2023-09-11T20:31:24.584Z,99.90
2023-09-11T20:33:52.879Z,99.90
2023-09-11T20:36:21.926Z,99.90
2023-09-11T20:38:52.604Z,99.90
2023-09-11T20:41:20.943Z,99.90
2023-09-11T20:43:49.282Z,99.90
2023-09-11T20:46:17.586Z,99.90
2023-09-11T20:48:46.059Z,99.90
2023-09-11T20:51:16.311Z,99.90
2023-09-11T20:53:44.893Z,99.90
2023-09-11T20:56:14.561Z,99.90
2023-09-11T20:58:43.573Z,99.90
2023-09-11T21:01:12.162Z,99.90
2023-09-11T21:03:40.997Z,99.90
2023-09-11T21:06:10.728Z,99.90
2023-09-11T21:08:39.736Z,99.90
2023-09-11T21:11:08.242Z,99.90
2023-09-11T21:13:37.879Z,99.90
2023-09-11T21:16:06.384Z,99.90
2023-09-11T21:18:34.642Z,99.90
2023-09-11T21:21:03.002Z,99.90
2023-09-11T21:23:31.227Z,99.90
2023-09-11T21:25:59.452Z,99.90
2023-09-11T21:28:29.235Z,99.90
2023-09-11T21:30:58.878Z,99.90
2023-09-11T21:33:28.525Z,99.90
2023-09-11T21:35:57.040Z,99.90
2023-09-11T21:38:25.256Z,99.90
2023-09-11T21:40:55.344Z,99.90
2023-09-11T21:43:23.712Z,99.90
2023-09-11T21:45:53.724Z,99.90
2023-09-11T21:48:23.405Z,99.90
2023-09-11T21:50:54.450Z,99.90
2023-09-11T21:53:22.683Z,99.90
2023-09-11T21:55:50.862Z,99.90
2023-09-11T21:58:19.174Z,99.90
2023-09-11T22:00:47.865Z,99.90
2023-09-11T22:03:16.230Z,99.90
2023-09-11T22:05:49.669Z,99.90
2023-09-11T22:08:18.150Z,99.90
2023-09-11T22:10:46.354Z,99.90
2023-09-11T22:13:14.818Z,99.90
2023-09-11T22:15:43.041Z,99.90
2023-09-11T22:18:11.306Z,99.90
2023-09-11T22:20:39.619Z,99.90
2023-09-11T22:23:09.184Z,99.90
2023-09-11T22:25:37.424Z,99.90
2023-09-11T22:28:06.316Z,99.90
2023-09-11T22:30:34.644Z,99.90
2023-09-11T22:33:02.995Z,99.90
2023-09-11T22:35:41.246Z,99.90
2023-09-11T22:38:18.898Z,99.90
2023-09-11T22:40:47.112Z,99.90
2023-09-11T22:43:15.296Z,99.90
2023-09-11T22:45:43.525Z,99.90
2023-09-11T22:48:11.870Z,99.90
2023-09-11T22:50:41.931Z,99.90
2023-09-11T22:53:10.411Z,99.90
2023-09-11T22:55:41.159Z,99.90
2023-09-11T22:58:11.027Z,99.90
2023-09-11T23:00:41.616Z,99.90
2023-09-11T23:03:10.958Z,99.90
2023-09-11T23:05:40.400Z,99.90
2023-09-11T23:08:08.667Z,99.90
2023-09-11T23:10:36.877Z,99.90
2023-09-11T23:13:06.503Z,99.90
2023-09-11T23:15:34.781Z,99.90
2023-09-11T23:18:04.906Z,99.90
2023-09-11T23:20:35.304Z,99.90
2023-09-11T23:23:03.537Z,99.90
2023-09-11T23:25:31.824Z,99.90
2023-09-11T23:28:00.055Z,99.90
2023-09-11T23:30:32.630Z,99.90
2023-09-11T23:33:01.040Z,99.90
2023-09-11T23:35:29.315Z,99.90
2023-09-11T23:37:57.485Z,99.90
2023-09-11T23:40:25.689Z,99.90
2023-09-11T23:42:53.927Z,99.90
2023-09-11T23:45:22.205Z,99.90
2023-09-11T23:47:51.946Z,99.90
2023-09-11T23:50:20.155Z,99.90
2023-09-11T23:52:48.504Z,99.90
2023-09-11T23:55:17.029Z,99.90
2023-09-11T23:57:45.240Z,99.90
